METAR Data
IDs: Format: Raw Decoded Include TAF

Data at: 2056 UTC 25 Oct 2021

METAR for:KHSE (Hatteras/Mitchell Fl, NC, US)
Text:KHSE 252051Z AUTO 12013KT 10SM CLR 23/19 A2978 RMK AO2 SLP084 60000 T02280194 58018
Temperature: 22.8°C ( 73°F)
Dewpoint: 19.4°C ( 67°F) [RH = 81%]
Pressure (altimeter):29.78 inches Hg (1008.5 mb) [Sea level pressure: 1008.4 mb]
Winds:from the ESE (120 degrees) at 15 MPH (13 knots; 6.7 m/s)
Visibility:10 or more sm (16+ km)
Ceiling:at least 12,000 feet AGL
Clouds:sky clear below 12,000 feet AGL
QC Flag:automated observation with no human augmentation
Text:KHSE 252021Z AUTO 11007KT 7SM SCT020 22/20 A2979 RMK AO2 PRESFR T02220200
Temperature: 22.2°C ( 72°F)
Dewpoint: 20.0°C ( 68°F) [RH = 87%]
Pressure (altimeter):29.79 inches Hg (1008.9 mb)
Winds:from the ESE (110 degrees) at 8 MPH (7 knots; 3.6 m/s)
Visibility: 7 sm ( 11 km)
Ceiling:at least 12,000 feet AGL
Clouds: scattered clouds at 2000 feet AGL
QC Flag:automated observation with no human augmentation
Text:KHSE 252009Z AUTO 09005KT 7SM BKN021 22/20 A2981 RMK AO2 T02220200
Temperature: 22.2°C ( 72°F)
Dewpoint: 20.0°C ( 68°F) [RH = 87%]
Pressure (altimeter):29.81 inches Hg (1009.6 mb)
Winds:from the E (90 degrees) at 6 MPH (5 knots; 2.6 m/s)
Visibility: 7 sm ( 11 km)
Ceiling:2100 feet AGL
Clouds: broken clouds at 2100 feet AGL
QC Flag:automated observation with no human augmentation
Text:KHSE 251951Z AUTO 11006KT 7SM SCT019 SCT033 22/19 A2981 RMK AO2 SLP093 T02170189
Temperature: 21.7°C ( 71°F)
Dewpoint: 18.9°C ( 66°F) [RH = 84%]
Pressure (altimeter):29.81 inches Hg (1009.6 mb) [Sea level pressure: 1009.3 mb]
Winds:from the ESE (110 degrees) at 7 MPH (6 knots; 3.1 m/s)
Visibility: 7 sm ( 11 km)
Ceiling:at least 12,000 feet AGL
Clouds: scattered clouds at 1900 feet AGL, scattered clouds at 3300 feet AGL
QC Flag:automated observation with no human augmentation
Text:KHSE 251949Z AUTO 11008KT 7SM SCT019 SCT033 22/19 A2981 RMK AO2
Temperature: 22.0°C ( 72°F)
Dewpoint: 19.0°C ( 66°F) [RH = 83%]
Pressure (altimeter):29.81 inches Hg (1009.6 mb)
Winds:from the ESE (110 degrees) at 9 MPH (8 knots; 4.1 m/s)
Visibility: 7 sm ( 11 km)
Ceiling:at least 12,000 feet AGL
Clouds: scattered clouds at 1900 feet AGL, scattered clouds at 3300 feet AGL
QC Flag:automated observation with no human augmentation
Text:KHSE 251928Z AUTO 10010G15KT 7SM SCT018 BKN024 BKN030 21/18 A2982 RMK AO2 T02110183
Temperature: 21.1°C ( 70°F)
Dewpoint: 18.3°C ( 65°F) [RH = 84%]
Pressure (altimeter):29.82 inches Hg (1009.9 mb)
Winds:from the E (100 degrees) at 12 MPH (10 knots; 5.1 m/s) gusting to 17 MPH (15 knots; 7.7 m/s)
Visibility: 7 sm ( 11 km)
Ceiling:2400 feet AGL
Clouds: scattered clouds at 1800 feet AGL, broken clouds at 2400 feet AGL, broken clouds at 3000 feet AGL
QC Flag:automated observation with no human augmentation
Text:KHSE 251851Z AUTO 11013KT 10SM FEW026 21/17 A2984 RMK AO2 RAE01 PRESFR SLP102 P0000 T02110172
Temperature: 21.1°C ( 70°F)
Dewpoint: 17.2°C ( 63°F) [RH = 78%]
Pressure (altimeter):29.84 inches Hg (1010.6 mb) [Sea level pressure: 1010.2 mb]
Winds:from the ESE (110 degrees) at 15 MPH (13 knots; 6.7 m/s)
Visibility:10 or more sm (16+ km)
Ceiling:at least 12,000 feet AGL
Clouds: few clouds at 2600 feet AGL
QC Flag:automated observation with no human augmentation
Text:KHSE 251751Z AUTO 14016KT 8SM -RA BKN055 OVC075 21/17 A2990 RMK AO2 PK WND 13027/1718 SLP125 P0002 60002 T02060172 10250 20200 58036
Temperature: 20.6°C ( 69°F)
Dewpoint: 17.2°C ( 63°F) [RH = 81%]
Pressure (altimeter):29.90 inches Hg (1012.6 mb) [Sea level pressure: 1012.5 mb]
Winds:from the SE (140 degrees) at 18 MPH (16 knots; 8.2 m/s)
Visibility: 8 sm ( 13 km)
Ceiling:5500 feet AGL
Clouds: broken clouds at 5500 feet AGL, overcast cloud deck at 7500 feet AGL
Weather:-RA (light rain)
QC Flag:automated observation with no human augmentation
Text:KHSE 251651Z AUTO 18016G25KT 10SM -RA FEW019 FEW070 OVC090 22/18 A2996 RMK AO2 SLP143 P0000 T02220183
Temperature: 22.2°C ( 72°F)
Dewpoint: 18.3°C ( 65°F) [RH = 79%]
Pressure (altimeter):29.96 inches Hg (1014.6 mb) [Sea level pressure: 1014.3 mb]
Winds:from the S (180 degrees) at 18 MPH (16 knots; 8.2 m/s) gusting to 29 MPH (25 knots; 12.9 m/s)
Visibility:10 or more sm (16+ km)
Ceiling:9000 feet AGL
Clouds: few clouds at 1900 feet AGL, few clouds at 7000 feet AGL, overcast cloud deck at 9000 feet AGL
Weather:-RA (light rain)
QC Flag:automated observation with no human augmentation
Text:KHSE 251551Z AUTO 17007KT 9SM -RA SCT020 BKN110 23/21 A2999 RMK AO2 RAE06B24 SLP154 P0000 T02330206
Temperature: 23.3°C ( 74°F)
Dewpoint: 20.6°C ( 69°F) [RH = 85%]
Pressure (altimeter):29.99 inches Hg (1015.7 mb) [Sea level pressure: 1015.4 mb]
Winds:from the S (170 degrees) at 8 MPH (7 knots; 3.6 m/s)
Visibility: 9 sm ( 14 km)
Ceiling:11000 feet AGL
Clouds: scattered clouds at 2000 feet AGL, broken clouds at 11000 feet AGL
Weather:-RA (light rain)
QC Flag:automated observation with no human augmentation
Text:KHSE 251528Z AUTO 22005G16KT 10SM -RA BKN019 BKN028 OVC110 24/21 A3001 RMK AO2 RAE06B24 P0000 T02390206
Temperature: 23.9°C ( 75°F)
Dewpoint: 20.6°C ( 69°F) [RH = 82%]
Pressure (altimeter):30.01 inches Hg (1016.3 mb)
Winds:from the SW (220 degrees) at 6 MPH (5 knots; 2.6 m/s) gusting to 18 MPH (16 knots; 8.2 m/s)
Visibility:10 or more sm (16+ km)
Ceiling:1900 feet AGL
Clouds: broken clouds at 1900 feet AGL, broken clouds at 2800 feet AGL, overcast cloud deck at 11000 feet AGL
Weather:-RA (light rain)
QC Flag:automated observation with no human augmentation
Text:KHSE 251451Z AUTO 17010KT 9SM -RA FEW060 FEW090 BKN110 24/22 A3001 RMK AO2 RAB34 SLP161 P0000 60000 T02390222 58013
Temperature: 23.9°C ( 75°F)
Dewpoint: 22.2°C ( 72°F) [RH = 90%]
Pressure (altimeter):30.01 inches Hg (1016.3 mb) [Sea level pressure: 1016.1 mb]
Winds:from the S (170 degrees) at 12 MPH (10 knots; 5.1 m/s)
Visibility: 9 sm ( 14 km)
Ceiling:11000 feet AGL
Clouds: few clouds at 6000 feet AGL, few clouds at 9000 feet AGL, broken clouds at 11000 feet AGL
Weather:-RA (light rain)
QC Flag:automated observation with no human augmentation
Text:KHSE 251351Z AUTO 14010KT 10SM CLR 24/22 A3003 RMK AO2 SLP170 T02440217
Temperature: 24.4°C ( 76°F)
Dewpoint: 21.7°C ( 71°F) [RH = 85%]
Pressure (altimeter):30.03 inches Hg (1017.0 mb) [Sea level pressure: 1017.0 mb]
Winds:from the SE (140 degrees) at 12 MPH (10 knots; 5.1 m/s)
Visibility:10 or more sm (16+ km)
Ceiling:at least 12,000 feet AGL
Clouds:sky clear below 12,000 feet AGL
QC Flag:automated observation with no human augmentation
Text:KHSE 251251Z AUTO 14006KT 10SM CLR 24/21 A3003 RMK AO2 SLP169 T02390211
Temperature: 23.9°C ( 75°F)
Dewpoint: 21.1°C ( 70°F) [RH = 84%]
Pressure (altimeter):30.03 inches Hg (1017.0 mb) [Sea level pressure: 1016.9 mb]
Winds:from the SE (140 degrees) at 7 MPH (6 knots; 3.1 m/s)
Visibility:10 or more sm (16+ km)
Ceiling:at least 12,000 feet AGL
Clouds:sky clear below 12,000 feet AGL
QC Flag:automated observation with no human augmentation
Text:KHSE 251151Z AUTO 14007KT 10SM CLR 23/21 A3004 RMK AO2 SLP173 T02330206 10233 20228 58007
Temperature: 23.3°C ( 74°F)
Dewpoint: 20.6°C ( 69°F) [RH = 85%]
Pressure (altimeter):30.04 inches Hg (1017.4 mb) [Sea level pressure: 1017.3 mb]
Winds:from the SE (140 degrees) at 8 MPH (7 knots; 3.6 m/s)
Visibility:10 or more sm (16+ km)
Ceiling:at least 12,000 feet AGL
Clouds:sky clear below 12,000 feet AGL
QC Flag:automated observation with no human augmentation
Text:KHSE 251051Z AUTO 16007KT 10SM CLR 23/21 A3006 RMK AO2 SLP177 T02330206
Temperature: 23.3°C ( 74°F)
Dewpoint: 20.6°C ( 69°F) [RH = 85%]
Pressure (altimeter):30.06 inches Hg (1018.0 mb) [Sea level pressure: 1017.7 mb]
Winds:from the SSE (160 degrees) at 8 MPH (7 knots; 3.6 m/s)
Visibility:10 or more sm (16+ km)
Ceiling:at least 12,000 feet AGL
Clouds:sky clear below 12,000 feet AGL
QC Flag:automated observation with no human augmentation
Text:KHSE 250951Z AUTO 16006KT 10SM CLR 23/21 A3006 RMK AO2 SLP179 T02330206
Temperature: 23.3°C ( 74°F)
Dewpoint: 20.6°C ( 69°F) [RH = 85%]
Pressure (altimeter):30.06 inches Hg (1018.0 mb) [Sea level pressure: 1017.9 mb]
Winds:from the SSE (160 degrees) at 7 MPH (6 knots; 3.1 m/s)
Visibility:10 or more sm (16+ km)
Ceiling:at least 12,000 feet AGL
Clouds:sky clear below 12,000 feet AGL
QC Flag:automated observation with no human augmentation
Text:KHSE 250851Z AUTO 17006KT 10SM CLR 23/20 A3007 RMK AO2 SLP181 T02280200 56014
Temperature: 22.8°C ( 73°F)
Dewpoint: 20.0°C ( 68°F) [RH = 84%]
Pressure (altimeter):30.07 inches Hg (1018.4 mb) [Sea level pressure: 1018.1 mb]
Winds:from the S (170 degrees) at 7 MPH (6 knots; 3.1 m/s)
Visibility:10 or more sm (16+ km)
Ceiling:at least 12,000 feet AGL
Clouds:sky clear below 12,000 feet AGL
QC Flag:automated observation with no human augmentation
Text:KHSE 250751Z AUTO 18006KT 10SM CLR 23/19 A3007 RMK AO2 SLP184 T02330194
Temperature: 23.3°C ( 74°F)
Dewpoint: 19.4°C ( 67°F) [RH = 79%]
Pressure (altimeter):30.07 inches Hg (1018.4 mb) [Sea level pressure: 1018.4 mb]
Winds:from the S (180 degrees) at 7 MPH (6 knots; 3.1 m/s)
Visibility:10 or more sm (16+ km)
Ceiling:at least 12,000 feet AGL
Clouds:sky clear below 12,000 feet AGL
QC Flag:automated observation with no human augmentation
Text:KHSE 250651Z AUTO 17008KT 10SM CLR 23/19 A3009 RMK AO2 SLP189 T02330189
Temperature: 23.3°C ( 74°F)
Dewpoint: 18.9°C ( 66°F) [RH = 76%]
Pressure (altimeter):30.09 inches Hg (1019.0 mb) [Sea level pressure: 1018.9 mb]
Winds:from the S (170 degrees) at 9 MPH (8 knots; 4.1 m/s)
Visibility:10 or more sm (16+ km)
Ceiling:at least 12,000 feet AGL
Clouds:sky clear below 12,000 feet AGL
QC Flag:automated observation with no human augmentation
Text:KHSE 250551Z AUTO 18008KT 10SM CLR 23/19 A3011 RMK AO2 SLP194 T02330189 10239 20228 58012
Temperature: 23.3°C ( 74°F)
Dewpoint: 18.9°C ( 66°F) [RH = 76%]
Pressure (altimeter):30.11 inches Hg (1019.7 mb) [Sea level pressure: 1019.4 mb]
Winds:from the S (180 degrees) at 9 MPH (8 knots; 4.1 m/s)
Visibility:10 or more sm (16+ km)
Ceiling:at least 12,000 feet AGL
Clouds:sky clear below 12,000 feet AGL
QC Flag:automated observation with no human augmentation
Text:KHSE 250451Z AUTO 18010KT 10SM CLR 23/19 A3012 RMK AO2 SLP198 T02330189 402560133
Temperature: 23.3°C ( 74°F)
Dewpoint: 18.9°C ( 66°F) [RH = 76%]
Pressure (altimeter):30.12 inches Hg (1020.1 mb) [Sea level pressure: 1019.8 mb]
Winds:from the S (180 degrees) at 12 MPH (10 knots; 5.1 m/s)
Visibility:10 or more sm (16+ km)
Ceiling:at least 12,000 feet AGL
Clouds:sky clear below 12,000 feet AGL
QC Flag:automated observation with no human augmentation
Text:KHSE 250351Z AUTO 18008KT 10SM SCT036 23/19 A3014 RMK AO2 SLP204 T02330194
Temperature: 23.3°C ( 74°F)
Dewpoint: 19.4°C ( 67°F) [RH = 79%]
Pressure (altimeter):30.14 inches Hg (1020.7 mb) [Sea level pressure: 1020.4 mb]
Winds:from the S (180 degrees) at 9 MPH (8 knots; 4.1 m/s)
Visibility:10 or more sm (16+ km)
Ceiling:at least 12,000 feet AGL
Clouds: scattered clouds at 3600 feet AGL
QC Flag:automated observation with no human augmentation
Text:KHSE 250251Z AUTO 16007KT 10SM CLR 23/19 A3014 RMK AO2 SLP206 T02280194 56007
Temperature: 22.8°C ( 73°F)
Dewpoint: 19.4°C ( 67°F) [RH = 81%]
Pressure (altimeter):30.14 inches Hg (1020.7 mb) [Sea level pressure: 1020.6 mb]
Winds:from the SSE (160 degrees) at 8 MPH (7 knots; 3.6 m/s)
Visibility:10 or more sm (16+ km)
Ceiling:at least 12,000 feet AGL
Clouds:sky clear below 12,000 feet AGL
QC Flag:automated observation with no human augmentation
Text:KHSE 250151Z AUTO 16009KT 10SM FEW043 23/19 A3015 RMK AO2 SLP209 T02280189
Temperature: 22.8°C ( 73°F)
Dewpoint: 18.9°C ( 66°F) [RH = 79%]
Pressure (altimeter):30.15 inches Hg (1021.1 mb) [Sea level pressure: 1020.9 mb]
Winds:from the SSE (160 degrees) at 10 MPH (9 knots; 4.6 m/s)
Visibility:10 or more sm (16+ km)
Ceiling:at least 12,000 feet AGL
Clouds: few clouds at 4300 feet AGL
QC Flag:automated observation with no human augmentation
Text:KHSE 250051Z AUTO 14007KT 10SM SCT038 23/19 A3015 RMK AO2 SLP209 T02280189
Temperature: 22.8°C ( 73°F)
Dewpoint: 18.9°C ( 66°F) [RH = 79%]
Pressure (altimeter):30.15 inches Hg (1021.1 mb) [Sea level pressure: 1020.9 mb]
Winds:from the SE (140 degrees) at 8 MPH (7 knots; 3.6 m/s)
Visibility:10 or more sm (16+ km)
Ceiling:at least 12,000 feet AGL
Clouds: scattered clouds at 3800 feet AGL
QC Flag:automated observation with no human augmentation
Text:KHSE 242351Z AUTO 15007KT 10SM CLR 23/19 A3016 RMK AO2 SLP213 T02280194 10256 20194 53006
Temperature: 22.8°C ( 73°F)
Dewpoint: 19.4°C ( 67°F) [RH = 81%]
Pressure (altimeter):30.16 inches Hg (1021.4 mb) [Sea level pressure: 1021.3 mb]
Winds:from the SSE (150 degrees) at 8 MPH (7 knots; 3.6 m/s)
Visibility:10 or more sm (16+ km)
Ceiling:at least 12,000 feet AGL
Clouds:sky clear below 12,000 feet AGL
QC Flag:automated observation with no human augmentation
Text:KHSE 242251Z AUTO 09003KT 10SM CLR 19/17 A3015 RMK AO2 SLP209 T01940167
Temperature: 19.4°C ( 67°F)
Dewpoint: 16.7°C ( 62°F) [RH = 84%]
Pressure (altimeter):30.15 inches Hg (1021.1 mb) [Sea level pressure: 1020.9 mb]
Winds:from the E (90 degrees) at 3 MPH (3 knots; 1.5 m/s)
Visibility:10 or more sm (16+ km)
Ceiling:at least 12,000 feet AGL
Clouds:sky clear below 12,000 feet AGL
QC Flag:automated observation with no human augmentation
Text:KHSE 242151Z AUTO 09004KT 10SM CLR 22/17 A3015 RMK AO2 SLP208 T02170167
Temperature: 21.7°C ( 71°F)
Dewpoint: 16.7°C ( 62°F) [RH = 73%]
Pressure (altimeter):30.15 inches Hg (1021.1 mb) [Sea level pressure: 1020.8 mb]
Winds:from the E (90 degrees) at 5 MPH (4 knots; 2.1 m/s)
Visibility:10 or more sm (16+ km)
Ceiling:at least 12,000 feet AGL
Clouds:sky clear below 12,000 feet AGL
QC Flag:automated observation with no human augmentation
Text:KHSE 242051Z AUTO 07005KT 10SM CLR 24/16 A3014 RMK AO2 SLP207 T02390161 55003
Temperature: 23.9°C ( 75°F)
Dewpoint: 16.1°C ( 61°F) [RH = 62%]
Pressure (altimeter):30.14 inches Hg (1020.7 mb) [Sea level pressure: 1020.7 mb]
Winds:from the ENE (70 degrees) at 6 MPH (5 knots; 2.6 m/s)
Visibility:10 or more sm (16+ km)
Ceiling:at least 12,000 feet AGL
Clouds:sky clear below 12,000 feet AGL
QC Flag:automated observation with no human augmentation
Text:KHSE 241951Z AUTO 08005KT 10SM FEW042 24/16 A3014 RMK AO2 SLP207 T02440161
Temperature: 24.4°C ( 76°F)
Dewpoint: 16.1°C ( 61°F) [RH = 60%]
Pressure (altimeter):30.14 inches Hg (1020.7 mb) [Sea level pressure: 1020.7 mb]
Winds:from the E (80 degrees) at 6 MPH (5 knots; 2.6 m/s)
Visibility:10 or more sm (16+ km)
Ceiling:at least 12,000 feet AGL
Clouds: few clouds at 4200 feet AGL
QC Flag:automated observation with no human augmentation
Text:KHSE 241851Z AUTO 13005KT 10SM CLR 26/16 A3015 RMK AO2 SLP210 T02560161
Temperature: 25.6°C ( 78°F)
Dewpoint: 16.1°C ( 61°F) [RH = 56%]
Pressure (altimeter):30.15 inches Hg (1021.1 mb) [Sea level pressure: 1021.0 mb]
Winds:from the SE (130 degrees) at 6 MPH (5 knots; 2.6 m/s)
Visibility:10 or more sm (16+ km)
Ceiling:at least 12,000 feet AGL
Clouds:sky clear below 12,000 feet AGL
QC Flag:automated observation with no human augmentation
Text:KHSE 241751Z AUTO 12007KT 10SM CLR 25/16 A3015 RMK AO2 SLP210 T02500156 10256 20172 58015
Temperature: 25.0°C ( 77°F)
Dewpoint: 15.6°C ( 60°F) [RH = 56%]
Pressure (altimeter):30.15 inches Hg (1021.1 mb) [Sea level pressure: 1021.0 mb]
Winds:from the ESE (120 degrees) at 8 MPH (7 knots; 3.6 m/s)
Visibility:10 or more sm (16+ km)
Ceiling:at least 12,000 feet AGL
Clouds:sky clear below 12,000 feet AGL
QC Flag:automated observation with no human augmentation
Text:KHSE 241651Z AUTO 12008KT 10SM CLR 25/16 A3018 RMK AO2 SLP218 T02500156
Temperature: 25.0°C ( 77°F)
Dewpoint: 15.6°C ( 60°F) [RH = 56%]
Pressure (altimeter):30.18 inches Hg (1022.1 mb) [Sea level pressure: 1021.8 mb]
Winds:from the ESE (120 degrees) at 9 MPH (8 knots; 4.1 m/s)
Visibility:10 or more sm (16+ km)
Ceiling:at least 12,000 feet AGL
Clouds:sky clear below 12,000 feet AGL
QC Flag:automated observation with no human augmentation
Text:KHSE 241551Z AUTO 11007KT 10SM CLR 24/14 A3019 RMK AO2 SLP222 T02440144
Temperature: 24.4°C ( 76°F)
Dewpoint: 14.4°C ( 58°F) [RH = 54%]
Pressure (altimeter):30.19 inches Hg (1022.4 mb) [Sea level pressure: 1022.2 mb]
Winds:from the ESE (110 degrees) at 8 MPH (7 knots; 3.6 m/s)
Visibility:10 or more sm (16+ km)
Ceiling:at least 12,000 feet AGL
Clouds:sky clear below 12,000 feet AGL
QC Flag:automated observation with no human augmentation
Text:KHSE 241451Z AUTO 08006KT 10SM CLR 23/13 A3020 RMK AO2 SLP225 T02330133 51011
Temperature: 23.3°C ( 74°F)
Dewpoint: 13.3°C ( 56°F) [RH = 53%]
Pressure (altimeter):30.20 inches Hg (1022.8 mb) [Sea level pressure: 1022.5 mb]
Winds:from the E (80 degrees) at 7 MPH (6 knots; 3.1 m/s)
Visibility:10 or more sm (16+ km)
Ceiling:at least 12,000 feet AGL
Clouds:sky clear below 12,000 feet AGL
QC Flag:automated observation with no human augmentation
Text:KHSE 241351Z AUTO 05005KT 10SM CLR 22/16 A3019 RMK AO2 SLP224 T02220156
Temperature: 22.2°C ( 72°F)
Dewpoint: 15.6°C ( 60°F) [RH = 66%]
Pressure (altimeter):30.19 inches Hg (1022.4 mb) [Sea level pressure: 1022.4 mb]
Winds:from the NE (50 degrees) at 6 MPH (5 knots; 2.6 m/s)
Visibility:10 or more sm (16+ km)
Ceiling:at least 12,000 feet AGL
Clouds:sky clear below 12,000 feet AGL
QC Flag:automated observation with no human augmentation
Text:KHSE 241251Z AUTO 07004KT 10SM CLR 20/16 A3018 RMK AO2 SLP219 T02000161
Temperature: 20.0°C ( 68°F)
Dewpoint: 16.1°C ( 61°F) [RH = 78%]
Pressure (altimeter):30.18 inches Hg (1022.1 mb) [Sea level pressure: 1021.9 mb]
Winds:from the ENE (70 degrees) at 5 MPH (4 knots; 2.1 m/s)
Visibility:10 or more sm (16+ km)
Ceiling:at least 12,000 feet AGL
Clouds:sky clear below 12,000 feet AGL
QC Flag:automated observation with no human augmentation
Text:KHSE 241151Z AUTO 03004KT 10SM CLR 17/16 A3017 RMK AO2 SLP214 T01720156 10183 20133 53016
Temperature: 17.2°C ( 63°F)
Dewpoint: 15.6°C ( 60°F) [RH = 90%]
Pressure (altimeter):30.17 inches Hg (1021.8 mb) [Sea level pressure: 1021.4 mb]
Winds:from the NNE (30 degrees) at 5 MPH (4 knots; 2.1 m/s)
Visibility:10 or more sm (16+ km)
Ceiling:at least 12,000 feet AGL
Clouds:sky clear below 12,000 feet AGL
QC Flag:automated observation with no human augmentation
Text:KHSE 241051Z AUTO 04004KT 10SM CLR 15/14 A3014 RMK AO2 SLP207 T01500139
Temperature: 15.0°C ( 59°F)
Dewpoint: 13.9°C ( 57°F) [RH = 93%]
Pressure (altimeter):30.14 inches Hg (1020.7 mb) [Sea level pressure: 1020.7 mb]
Winds:from the NE (40 degrees) at 5 MPH (4 knots; 2.1 m/s)
Visibility:10 or more sm (16+ km)
Ceiling:at least 12,000 feet AGL
Clouds:sky clear below 12,000 feet AGL
QC Flag:automated observation with no human augmentation
Text:KHSE 240951Z AUTO 05003KT 9SM CLR 14/13 A3013 RMK AO2 SLP203 T01390128
Temperature: 13.9°C ( 57°F)
Dewpoint: 12.8°C ( 55°F) [RH = 93%]
Pressure (altimeter):30.13 inches Hg (1020.4 mb) [Sea level pressure: 1020.3 mb]
Winds:from the NE (50 degrees) at 3 MPH (3 knots; 1.5 m/s)
Visibility: 9 sm ( 14 km)
Ceiling:at least 12,000 feet AGL
Clouds:sky clear below 12,000 feet AGL
QC Flag:automated observation with no human augmentation